createdAt,value
2019-05-21T00:00:38.753Z,24.60
2019-05-21T00:01:38.740Z,24.80
2019-05-21T00:02:38.724Z,24.70
2019-05-21T00:03:38.708Z,23.50
2019-05-21T00:04:38.692Z,25.70
2019-05-21T00:05:38.678Z,25.40
2019-05-21T00:06:38.664Z,24.60
2019-05-21T00:07:38.653Z,24.90
2019-05-21T00:08:38.633Z,24.70
2019-05-21T00:09:38.616Z,25.00
2019-05-21T00:10:38.615Z,24.10
2019-05-21T00:11:38.586Z,25.80
2019-05-21T00:12:38.569Z,25.50
2019-05-21T00:13:38.555Z,23.30
2019-05-21T00:14:38.542Z,24.70
2019-05-21T00:15:38.524Z,23.50
2019-05-21T00:16:38.507Z,23.90
2019-05-21T00:17:38.507Z,24.40
2019-05-21T00:18:38.476Z,23.50
2019-05-21T00:19:38.465Z,22.40
2019-05-21T00:20:38.447Z,23.70
2019-05-21T00:21:38.434Z,22.10
2019-05-21T00:22:38.462Z,24.40
2019-05-21T00:23:38.400Z,23.20
2019-05-21T00:24:38.690Z,22.10
2019-05-21T00:25:38.373Z,21.50
2019-05-21T00:26:38.356Z,21.40
2019-05-21T00:27:38.406Z,22.10
2019-05-21T00:28:38.331Z,22.30
2019-05-21T00:29:38.337Z,22.20
2019-05-21T00:30:38.293Z,22.40
2019-05-21T00:31:38.276Z,21.90
2019-05-21T00:32:38.265Z,22.00
2019-05-21T00:33:38.245Z,21.80
2019-05-21T00:34:43.930Z,21.30
2019-05-21T00:35:38.214Z,22.20
2019-05-21T00:36:38.198Z,21.30
2019-05-21T00:37:38.184Z,21.20
2019-05-21T00:38:38.174Z,20.50
2019-05-21T00:39:38.156Z,21.80
2019-05-21T00:40:38.151Z,22.10
2019-05-21T00:41:38.121Z,20.90
2019-05-21T00:42:38.106Z,20.40
2019-05-21T00:43:38.090Z,21.50
2019-05-21T00:44:38.079Z,21.90
2019-05-21T00:45:38.059Z,21.80
2019-05-21T00:46:38.049Z,21.70
2019-05-21T00:47:38.044Z,21.10
2019-05-21T00:48:38.017Z,21.40
2019-05-21T00:49:38.003Z,22.20
2019-05-21T00:50:37.983Z,22.20
2019-05-21T00:51:37.972Z,22.40
2019-05-21T00:52:37.951Z,21.90
2019-05-21T00:53:37.967Z,23.10
2019-05-21T00:54:37.920Z,21.70
2019-05-21T00:55:37.913Z,22.00
2019-05-21T00:56:37.887Z,22.20
2019-05-21T00:57:37.877Z,20.10
2019-05-21T00:58:37.859Z,22.60
2019-05-21T00:59:37.852Z,22.70
2019-05-21T01:00:37.830Z,21.60
2019-05-21T01:01:37.815Z,23.60
2019-05-21T01:02:37.796Z,22.60
2019-05-21T01:03:37.778Z,23.70
2019-05-21T01:04:37.769Z,23.50
2019-05-21T01:05:37.747Z,22.10
2019-05-21T01:06:37.733Z,24.70
2019-05-21T01:07:37.723Z,24.10
2019-05-21T01:08:37.699Z,23.40
2019-05-21T01:09:37.682Z,24.40
2019-05-21T01:10:37.667Z,23.70
2019-05-21T01:11:37.653Z,24.90
2019-05-21T01:12:37.635Z,25.10
2019-05-21T01:13:37.622Z,25.10
2019-05-21T01:14:37.615Z,23.80
2019-05-21T01:15:37.599Z,24.80
2019-05-21T01:16:37.583Z,24.60
2019-05-21T01:17:37.579Z,27.20
2019-05-21T01:18:37.546Z,26.10
2019-05-21T01:19:37.527Z,32.10
2019-05-21T01:20:37.512Z,26.50
2019-05-21T01:21:37.495Z,26.60
2019-05-21T01:22:37.479Z,30.40
2019-05-21T01:23:37.461Z,27.70
2019-05-21T01:24:37.448Z,28.70
2019-05-21T01:25:37.442Z,29.20
2019-05-21T01:26:37.415Z,28.80
2019-05-21T01:27:37.399Z,28.70
2019-05-21T01:28:37.384Z,29.30
2019-05-21T01:29:37.372Z,28.30
2019-05-21T01:30:37.358Z,27.70
2019-05-21T01:31:37.339Z,26.40
2019-05-21T01:32:37.340Z,27.30
2019-05-21T01:33:37.313Z,27.80
2019-05-21T01:34:37.322Z,27.10
2019-05-21T01:35:37.272Z,27.70
2019-05-21T01:36:37.258Z,29.60
2019-05-21T01:37:37.245Z,28.30
2019-05-21T01:38:37.236Z,28.90
2019-05-21T01:39:37.211Z,28.20
2019-05-21T01:40:37.194Z,29.90
2019-05-21T01:41:37.184Z,29.70
2019-05-21T01:42:37.163Z,27.00
2019-05-21T01:43:37.147Z,29.50
2019-05-21T01:44:37.129Z,26.00
2019-05-21T01:45:37.115Z,29.10
2019-05-21T01:46:37.099Z,27.70
2019-05-21T01:47:37.082Z,26.60
2019-05-21T01:48:37.069Z,25.80
2019-05-21T01:49:37.057Z,29.10
2019-05-21T01:50:37.040Z,28.80
2019-05-21T01:51:37.023Z,30.30
2019-05-21T01:52:37.008Z,29.30
2019-05-21T01:53:36.988Z,30.30
2019-05-21T01:54:36.994Z,28.10
2019-05-21T01:55:36.956Z,30.00
2019-05-21T01:56:36.945Z,29.20
2019-05-21T01:57:36.926Z,28.40
2019-05-21T01:58:36.913Z,28.70
2019-05-21T01:59:36.896Z,29.70
2019-05-21T02:00:36.884Z,31.80
2019-05-21T02:01:36.867Z,31.10
2019-05-21T02:02:36.850Z,32.40
2019-05-21T02:03:36.833Z,32.30
2019-05-21T02:04:36.826Z,32.80
2019-05-21T02:05:36.812Z,31.30
2019-05-21T02:06:36.786Z,33.10
2019-05-21T02:07:36.772Z,32.30
2019-05-21T02:08:36.770Z,33.00
2019-05-21T02:09:36.740Z,32.60
2019-05-21T02:10:36.731Z,33.80
2019-05-21T02:11:36.720Z,34.90
2019-05-21T02:12:36.693Z,35.60
2019-05-21T02:13:36.675Z,33.50
2019-05-21T02:14:36.657Z,35.30
2019-05-21T02:15:36.645Z,36.40
2019-05-21T02:16:36.907Z,38.20
2019-05-21T02:17:36.615Z,34.40
2019-05-21T02:18:36.597Z,37.10
2019-05-21T02:19:36.580Z,36.90
2019-05-21T02:20:36.589Z,40.90
2019-05-21T02:21:36.559Z,41.30
2019-05-21T02:22:36.548Z,39.30
2019-05-21T02:23:36.520Z,38.10
2019-05-21T02:24:36.498Z,39.90
2019-05-21T02:25:36.485Z,38.10
2019-05-21T02:26:36.479Z,39.10
2019-05-21T02:27:36.464Z,41.20
2019-05-21T02:28:36.437Z,42.90
2019-05-21T02:29:36.420Z,42.90
2019-05-21T02:30:36.404Z,44.20
2019-05-21T02:31:36.390Z,44.00
2019-05-21T02:32:36.373Z,41.70
2019-05-21T02:33:36.361Z,44.40
2019-05-21T02:34:36.341Z,44.60
2019-05-21T02:35:52.792Z,44.20
2019-05-21T02:36:36.309Z,47.00
2019-05-21T02:37:36.417Z,43.50
2019-05-21T02:38:36.280Z,49.10
2019-05-21T02:39:36.268Z,45.90
2019-05-21T02:40:36.252Z,49.30
2019-05-21T02:41:36.238Z,45.20
2019-05-21T02:42:36.270Z,47.80
2019-05-21T02:43:36.205Z,45.50
2019-05-21T02:44:36.185Z,48.80
2019-05-21T02:45:36.170Z,47.80
2019-05-21T02:46:36.161Z,44.40
2019-05-21T02:47:36.141Z,50.20
2019-05-21T02:48:36.120Z,44.60
2019-05-21T02:49:36.114Z,46.30
2019-05-21T02:50:36.091Z,47.40
2019-05-21T02:51:36.077Z,46.70
2019-05-21T02:52:36.055Z,46.50
2019-05-21T02:53:36.046Z,52.10
2019-05-21T02:54:40.697Z,47.70
2019-05-21T02:55:36.012Z,47.30
2019-05-21T02:56:35.994Z,50.50
2019-05-21T02:57:35.975Z,49.40
2019-05-21T02:58:35.965Z,50.00
2019-05-21T02:59:35.949Z,53.40
2019-05-21T03:00:38.593Z,49.90
2019-05-21T03:01:35.913Z,51.90
2019-05-21T03:02:35.895Z,46.40
2019-05-21T03:03:35.886Z,47.90
2019-05-21T03:04:35.869Z,48.40
2019-05-21T03:05:35.847Z,49.60
2019-05-21T03:06:35.847Z,48.00
2019-05-21T03:07:35.815Z,51.00
2019-05-21T03:08:35.802Z,51.80
2019-05-21T03:09:35.785Z,51.00
2019-05-21T03:10:35.770Z,50.10
2019-05-21T03:11:35.751Z,50.10
2019-05-21T03:12:35.744Z,50.20
2019-05-21T03:13:35.721Z,50.10
2019-05-21T03:14:35.705Z,50.40
2019-05-21T03:15:35.693Z,53.00
2019-05-21T03:16:35.675Z,51.40
2019-05-21T03:17:35.656Z,53.60
2019-05-21T03:18:35.654Z,57.10
2019-05-21T03:19:35.625Z,53.60
2019-05-21T03:20:35.623Z,51.70
2019-05-21T03:21:35.598Z,54.70
2019-05-21T03:22:35.583Z,52.50
2019-05-21T03:23:35.589Z,52.70
2019-05-21T03:24:35.553Z,52.80
2019-05-21T03:25:35.539Z,52.40
2019-05-21T03:26:35.514Z,52.80
2019-05-21T03:27:35.499Z,52.20
2019-05-21T03:28:35.487Z,50.50
2019-05-21T03:29:35.476Z,52.00
2019-05-21T03:30:35.454Z,55.20
2019-05-21T03:31:35.439Z,53.20
2019-05-21T03:32:35.418Z,52.50
2019-05-21T03:33:35.410Z,52.80
2019-05-21T03:34:35.392Z,51.70
2019-05-21T03:35:35.407Z,54.30
2019-05-21T03:36:35.354Z,55.50
2019-05-21T03:37:35.352Z,59.60
2019-05-21T03:38:35.326Z,55.60
2019-05-21T03:39:35.302Z,52.20
2019-05-21T03:40:35.296Z,54.90
2019-05-21T03:41:35.274Z,57.00
2019-05-21T03:42:35.263Z,53.90
2019-05-21T03:43:35.242Z,57.30
2019-05-21T03:44:35.238Z,53.80
2019-05-21T03:45:35.213Z,52.50
2019-05-21T03:46:35.199Z,51.70
2019-05-21T03:47:35.179Z,52.50
2019-05-21T03:48:35.164Z,58.20
2019-05-21T03:49:35.149Z,54.20
2019-05-21T03:50:35.138Z,51.90
2019-05-21T03:51:35.122Z,53.70
2019-05-21T03:52:35.101Z,53.10
2019-05-21T03:53:35.083Z,53.50
2019-05-21T03:54:35.076Z,53.30
2019-05-21T03:55:35.053Z,50.70
2019-05-21T03:56:35.040Z,52.40
2019-05-21T03:57:35.021Z,54.20
2019-05-21T03:58:35.012Z,51.80
2019-05-21T03:59:34.995Z,50.40
2019-05-21T04:00:34.974Z,52.60
2019-05-21T04:01:34.970Z,50.40
2019-05-21T04:02:34.941Z,53.40
2019-05-21T04:03:34.925Z,48.80
2019-05-21T04:04:34.920Z,47.20
2019-05-21T04:05:34.894Z,47.40
2019-05-21T04:06:50.689Z,49.40
2019-05-21T04:07:34.861Z,48.40
2019-05-21T04:08:34.843Z,50.40
2019-05-21T04:09:34.836Z,48.30
2019-05-21T04:10:34.818Z,48.00
2019-05-21T04:11:34.799Z,46.60
2019-05-21T04:12:34.782Z,49.90
2019-05-21T04:13:34.766Z,46.90
2019-05-21T04:14:34.762Z,48.80
2019-05-21T04:15:34.736Z,49.30
2019-05-21T04:16:34.719Z,51.20
2019-05-21T04:17:35.203Z,50.60
2019-05-21T04:18:34.691Z,47.50
2019-05-21T04:19:34.672Z,52.90
2019-05-21T04:20:34.657Z,46.60
2019-05-21T04:21:34.636Z,50.80
2019-05-21T04:22:34.712Z,49.10
2019-05-21T04:23:34.604Z,51.10
2019-05-21T04:24:34.590Z,46.30
2019-05-21T04:25:34.573Z,49.30
2019-05-21T04:26:34.562Z,50.00
2019-05-21T04:27:34.546Z,48.80
2019-05-21T04:28:34.532Z,48.30
2019-05-21T04:29:34.513Z,49.10
2019-05-21T04:30:34.498Z,51.80
2019-05-21T04:31:34.475Z,48.00
2019-05-21T04:32:34.463Z,54.50
2019-05-21T04:33:34.451Z,47.10
2019-05-21T04:34:34.432Z,45.90
2019-05-21T04:35:34.416Z,52.70
2019-05-21T04:36:34.395Z,47.10
2019-05-21T04:37:34.386Z,49.50
2019-05-21T04:38:34.426Z,46.30
2019-05-21T04:39:34.396Z,47.70
2019-05-21T04:40:34.334Z,46.30
2019-05-21T04:41:34.316Z,47.60
2019-05-21T04:42:34.301Z,46.50
2019-05-21T04:43:34.288Z,46.20
2019-05-21T04:44:34.270Z,49.60
2019-05-21T04:45:34.253Z,46.90
2019-05-21T04:46:34.238Z,49.10
2019-05-21T04:47:34.216Z,45.70
2019-05-21T04:48:34.213Z,48.50
2019-05-21T04:49:34.201Z,53.40
2019-05-21T04:50:34.174Z,45.90
2019-05-21T04:51:34.176Z,48.20
2019-05-21T04:52:34.143Z,44.70
2019-05-21T04:53:34.126Z,46.30
2019-05-21T04:54:34.123Z,46.20
2019-05-21T04:55:34.089Z,49.10
2019-05-21T04:56:34.076Z,45.80
2019-05-21T04:57:37.346Z,47.50
2019-05-21T04:58:34.045Z,47.40
2019-05-21T04:59:34.029Z,44.20
2019-05-21T05:00:34.015Z,43.10
2019-05-21T05:01:34.008Z,44.20
2019-05-21T05:02:33.982Z,45.50
2019-05-21T05:03:33.979Z,45.10
2019-05-21T05:04:33.965Z,44.30
2019-05-21T05:05:33.940Z,44.40
2019-05-21T05:06:33.918Z,47.10
2019-05-21T05:07:33.907Z,42.90
2019-05-21T05:08:33.887Z,44.50
2019-05-21T05:09:33.867Z,43.80
2019-05-21T05:10:33.847Z,44.70
2019-05-21T05:11:33.832Z,43.90
2019-05-21T05:12:33.825Z,45.30
2019-05-21T05:13:33.805Z,44.80
2019-05-21T05:14:33.787Z,44.40
2019-05-21T05:15:33.776Z,41.10
2019-05-21T05:16:33.766Z,43.60
2019-05-21T05:17:33.880Z,43.50
2019-05-21T05:18:33.722Z,44.20
2019-05-21T05:19:33.708Z,47.00
2019-05-21T05:20:33.694Z,44.80
2019-05-21T05:21:33.669Z,46.40
2019-05-21T05:22:33.656Z,45.20
2019-05-21T05:23:33.637Z,47.20
2019-05-21T05:24:36.875Z,45.40
2019-05-21T05:25:33.608Z,47.10
2019-05-21T05:26:33.606Z,41.60
2019-05-21T05:27:33.574Z,48.40
2019-05-21T05:28:33.559Z,43.50
2019-05-21T05:29:33.544Z,42.40
2019-05-21T05:30:33.534Z,45.60
2019-05-21T05:31:33.516Z,45.90
2019-05-21T05:32:33.495Z,41.50
2019-05-21T05:33:33.480Z,43.30
2019-05-21T05:34:33.463Z,40.20
2019-05-21T05:35:33.446Z,39.70
2019-05-21T05:36:33.434Z,43.30
2019-05-21T05:37:43.250Z,44.40
2019-05-21T05:38:33.399Z,43.30
2019-05-21T05:39:33.383Z,42.40
2019-05-21T05:40:33.365Z,43.80
2019-05-21T05:41:33.350Z,41.50
2019-05-21T05:42:33.331Z,43.10
2019-05-21T05:43:33.315Z,41.50
2019-05-21T05:44:33.302Z,42.50
2019-05-21T05:45:33.290Z,40.60
2019-05-21T05:46:33.272Z,41.10
2019-05-21T05:47:33.255Z,40.70
2019-05-21T05:48:33.243Z,41.30
2019-05-21T05:49:33.225Z,37.60
2019-05-21T05:50:33.207Z,37.70
2019-05-21T05:51:33.188Z,40.10
2019-05-21T05:52:33.174Z,39.40
2019-05-21T05:53:33.160Z,36.60
2019-05-21T05:54:33.143Z,41.80
2019-05-21T05:55:33.125Z,40.10
2019-05-21T05:56:33.109Z,37.00
2019-05-21T05:57:33.095Z,37.60
2019-05-21T05:58:33.087Z,38.60
2019-05-21T05:59:33.064Z,39.30
2019-05-21T06:00:33.042Z,36.90
2019-05-21T06:01:33.054Z,38.00
2019-05-21T06:02:33.025Z,35.00
2019-05-21T06:03:33.000Z,38.20
2019-05-21T06:04:32.981Z,38.20
2019-05-21T06:05:32.965Z,34.30
2019-05-21T06:06:32.954Z,34.20
2019-05-21T06:07:32.930Z,34.70
2019-05-21T06:08:32.916Z,34.40
2019-05-21T06:09:32.902Z,32.00
2019-05-21T06:10:32.885Z,33.80
2019-05-21T06:11:32.866Z,36.90
2019-05-21T06:12:32.851Z,37.10
2019-05-21T06:13:32.833Z,34.10
2019-05-21T06:14:32.822Z,33.70
2019-05-21T06:15:32.800Z,33.30
2019-05-21T06:16:32.799Z,33.80
2019-05-21T06:17:32.798Z,34.00
2019-05-21T06:18:35.512Z,31.80
2019-05-21T06:19:32.740Z,31.90
2019-05-21T06:20:32.719Z,31.90
2019-05-21T06:21:32.708Z,33.40
2019-05-21T06:22:32.691Z,33.20
2019-05-21T06:23:32.679Z,32.50
2019-05-21T06:24:32.657Z,32.40
2019-05-21T06:25:32.640Z,31.60
2019-05-21T06:26:32.627Z,32.10
2019-05-21T06:27:32.612Z,29.00
2019-05-21T06:28:32.602Z,29.10
2019-05-21T06:29:32.578Z,29.60
2019-05-21T06:30:32.561Z,31.20
2019-05-21T06:31:32.541Z,30.90
2019-05-21T06:32:32.528Z,28.40
2019-05-21T06:33:32.511Z,27.70
2019-05-21T06:34:32.496Z,30.80
2019-05-21T06:35:32.478Z,29.50
2019-05-21T06:36:32.469Z,30.20
2019-05-21T06:37:32.458Z,27.60
2019-05-21T06:38:32.435Z,28.50
2019-05-21T06:39:32.415Z,26.90
2019-05-21T06:40:32.398Z,26.90
2019-05-21T06:41:32.466Z,25.90
2019-05-21T06:42:32.384Z,26.20
2019-05-21T06:43:32.350Z,27.30
2019-05-21T06:44:32.338Z,25.70
2019-05-21T06:45:32.320Z,25.30
2019-05-21T06:46:32.305Z,25.00
2019-05-21T06:47:32.293Z,24.80
2019-05-21T06:48:32.273Z,24.30
2019-05-21T06:49:32.261Z,25.10
2019-05-21T06:50:32.250Z,25.60
2019-05-21T06:51:32.338Z,24.60
2019-05-21T06:52:32.212Z,24.00
2019-05-21T06:53:32.195Z,23.20
2019-05-21T06:54:32.183Z,23.80
2019-05-21T06:55:32.169Z,25.20
2019-05-21T06:56:32.146Z,22.90
2019-05-21T06:57:32.139Z,24.10
2019-05-21T06:58:32.116Z,22.90
2019-05-21T06:59:32.100Z,24.50
2019-05-21T07:00:32.087Z,23.00
2019-05-21T07:01:32.075Z,23.00
2019-05-21T07:02:32.056Z,22.00
2019-05-21T07:03:32.038Z,22.00
2019-05-21T07:04:32.033Z,22.40
2019-05-21T07:05:32.008Z,21.00
2019-05-21T07:06:31.996Z,21.20
2019-05-21T07:07:31.980Z,21.70
2019-05-21T07:08:35.039Z,22.00
2019-05-21T07:09:31.954Z,20.90
2019-05-21T07:10:31.935Z,21.10
2019-05-21T07:11:31.910Z,22.00
2019-05-21T07:12:31.899Z,21.40
2019-05-21T07:13:31.885Z,22.60
2019-05-21T07:14:31.875Z,24.10
2019-05-21T07:15:31.855Z,23.20
2019-05-21T07:16:31.835Z,20.20
2019-05-21T07:17:31.821Z,21.20
2019-05-21T07:18:31.800Z,21.90
2019-05-21T07:19:31.798Z,20.30
2019-05-21T07:20:31.771Z,20.30
2019-05-21T07:21:31.759Z,22.90
2019-05-21T07:22:31.837Z,21.30
2019-05-21T07:23:31.725Z,20.80
2019-05-21T07:24:31.709Z,21.00
2019-05-21T07:25:31.696Z,21.90
2019-05-21T07:26:31.677Z,20.00
2019-05-21T07:27:31.666Z,20.00
2019-05-21T07:28:31.657Z,20.80
2019-05-21T07:29:31.630Z,20.90
2019-05-21T07:30:31.613Z,22.00
2019-05-21T07:31:31.609Z,21.80
2019-05-21T07:32:31.591Z,20.10
2019-05-21T07:33:31.577Z,20.40
2019-05-21T07:34:31.552Z,22.10
2019-05-21T07:35:31.544Z,20.30
2019-05-21T07:36:31.519Z,19.80
2019-05-21T07:37:31.566Z,22.40
2019-05-21T07:38:31.492Z,22.70
2019-05-21T07:39:31.471Z,20.80
2019-05-21T07:40:31.464Z,20.30
2019-05-21T07:41:31.445Z,19.30
2019-05-21T07:42:31.429Z,21.50
2019-05-21T07:43:31.415Z,18.70
2019-05-21T07:44:31.397Z,19.70
2019-05-21T07:45:31.379Z,19.80
2019-05-21T07:46:31.363Z,20.40
2019-05-21T07:47:31.349Z,21.10
2019-05-21T07:48:31.332Z,20.10
2019-05-21T07:49:31.319Z,21.50
2019-05-21T07:50:31.303Z,22.10
2019-05-21T07:51:31.286Z,21.70
2019-05-21T07:52:31.271Z,21.10
2019-05-21T07:53:31.253Z,21.30
2019-05-21T07:54:31.247Z,20.00
2019-05-21T07:55:31.222Z,20.10
2019-05-21T07:56:31.216Z,19.70
2019-05-21T07:57:31.196Z,19.90
2019-05-21T07:58:31.177Z,20.90
2019-05-21T07:59:31.159Z,21.50
2019-05-21T08:00:31.147Z,19.20
2019-05-21T08:01:31.139Z,18.70
2019-05-21T08:02:31.114Z,19.90
2019-05-21T08:03:31.097Z,18.80
2019-05-21T08:04:31.086Z,19.00
2019-05-21T08:05:31.066Z,20.60
2019-05-21T08:06:31.049Z,20.00
2019-05-21T08:07:31.035Z,19.30
2019-05-21T08:08:31.162Z,20.70
2019-05-21T08:09:31.009Z,20.20
2019-05-21T08:10:30.989Z,20.50
2019-05-21T08:11:30.976Z,20.50
2019-05-21T08:12:38.794Z,20.00
2019-05-21T08:13:30.942Z,21.00
2019-05-21T08:14:30.929Z,21.20
2019-05-21T08:15:30.921Z,22.20
2019-05-21T08:16:30.903Z,19.90
2019-05-21T08:17:30.894Z,21.30
2019-05-21T08:18:30.867Z,18.80
2019-05-21T08:19:31.388Z,21.00
2019-05-21T08:20:30.832Z,21.10
2019-05-21T08:21:30.824Z,20.60
2019-05-21T08:22:30.802Z,20.70
2019-05-21T08:23:30.791Z,22.20
2019-05-21T08:24:30.771Z,20.80
2019-05-21T08:25:30.759Z,20.90
2019-05-21T08:26:30.742Z,20.40
2019-05-21T08:27:30.730Z,20.40
2019-05-21T08:28:30.713Z,20.90
2019-05-21T08:29:30.700Z,22.40
2019-05-21T08:30:30.683Z,19.60
2019-05-21T08:31:30.687Z,19.90
2019-05-21T08:32:30.652Z,20.70
2019-05-21T08:33:30.634Z,21.30
2019-05-21T08:34:30.624Z,21.60
2019-05-21T08:35:30.673Z,20.10
2019-05-21T08:36:30.592Z,20.10
2019-05-21T08:37:30.579Z,21.20
2019-05-21T08:38:30.558Z,19.30
2019-05-21T08:39:30.542Z,20.70
2019-05-21T08:40:30.538Z,19.80
2019-05-21T08:41:30.514Z,19.20
2019-05-21T08:42:30.494Z,20.30
2019-05-21T08:43:30.479Z,19.20
2019-05-21T08:44:30.464Z,20.40
2019-05-21T08:45:30.449Z,19.50
2019-05-21T08:46:30.436Z,20.60
2019-05-21T08:47:30.430Z,23.00
2019-05-21T08:48:30.405Z,24.00
2019-05-21T08:49:30.406Z,22.70
2019-05-21T08:50:30.379Z,25.20
2019-05-21T08:51:30.358Z,23.90
2019-05-21T08:52:30.346Z,19.50
2019-05-21T08:53:30.345Z,19.00
2019-05-21T08:54:30.312Z,21.80
2019-05-21T08:55:30.295Z,20.30
2019-05-21T08:56:30.285Z,20.40
2019-05-21T08:57:30.282Z,18.50
2019-05-21T08:58:30.251Z,20.00
2019-05-21T08:59:30.240Z,20.60
2019-05-21T09:00:30.219Z,19.90
2019-05-21T09:01:30.204Z,19.50
2019-05-21T09:02:30.190Z,20.40
2019-05-21T09:03:30.173Z,19.90
2019-05-21T09:04:45.280Z,20.80
2019-05-21T09:05:30.205Z,19.10
2019-05-21T09:06:30.129Z,18.80
2019-05-21T09:07:30.123Z,20.60
2019-05-21T09:08:30.100Z,19.30
2019-05-21T09:09:48.479Z,20.30
2019-05-21T09:10:30.069Z,20.30
2019-05-21T09:11:30.052Z,21.60
2019-05-21T09:12:30.125Z,20.50
2019-05-21T09:13:30.024Z,20.90
2019-05-21T09:14:30.008Z,18.00
2019-05-21T09:15:29.985Z,20.70
2019-05-21T09:16:29.977Z,19.20
2019-05-21T09:17:29.954Z,19.80
2019-05-21T09:18:29.956Z,19.60
2019-05-21T09:19:29.932Z,18.90
2019-05-21T09:20:29.914Z,19.90
2019-05-21T09:21:29.896Z,17.90
2019-05-21T09:22:29.877Z,18.40
2019-05-21T09:23:29.871Z,19.40
2019-05-21T09:24:29.850Z,20.70
2019-05-21T09:25:29.842Z,19.60
2019-05-21T09:26:29.858Z,20.20
2019-05-21T09:27:29.815Z,18.80
2019-05-21T09:28:29.839Z,20.60
2019-05-21T09:29:29.778Z,19.80
2019-05-21T09:30:29.761Z,19.40
2019-05-21T09:31:29.740Z,20.30
2019-05-21T09:32:29.727Z,19.30
2019-05-21T09:33:29.717Z,20.30
2019-05-21T09:34:47.075Z,20.10
2019-05-21T09:35:29.690Z,22.00
2019-05-21T09:36:29.666Z,23.00
2019-05-21T09:37:29.651Z,23.30
2019-05-21T09:38:29.641Z,22.20
2019-05-21T09:39:29.628Z,20.70
2019-05-21T09:40:29.606Z,17.80
2019-05-21T09:41:29.590Z,18.50
2019-05-21T09:42:29.577Z,19.00
2019-05-21T09:43:29.560Z,19.00
2019-05-21T09:44:29.546Z,18.40
2019-05-21T09:45:29.533Z,18.20
2019-05-21T09:46:29.518Z,19.40
2019-05-21T09:47:29.502Z,18.90
2019-05-21T09:48:29.495Z,18.30
2019-05-21T09:49:29.478Z,19.90
2019-05-21T09:50:29.458Z,17.20
2019-05-21T09:51:29.436Z,18.30
2019-05-21T09:52:29.430Z,19.10
2019-05-21T09:53:29.425Z,20.10
2019-05-21T09:54:29.393Z,18.80
2019-05-21T09:55:29.385Z,20.10
2019-05-21T09:56:29.367Z,20.30
2019-05-21T09:57:29.350Z,17.00
2019-05-21T09:58:29.334Z,18.30
2019-05-21T09:59:29.325Z,17.90
2019-05-21T10:00:29.301Z,18.20
2019-05-21T10:01:29.294Z,19.80
2019-05-21T10:02:29.289Z,19.30
2019-05-21T10:03:29.254Z,19.60
2019-05-21T10:04:29.253Z,18.80
2019-05-21T10:05:29.224Z,19.30
2019-05-21T10:06:29.211Z,19.80
2019-05-21T10:07:38.946Z,18.80
2019-05-21T10:08:29.181Z,18.90
2019-05-21T10:09:29.162Z,19.00
2019-05-21T10:10:29.151Z,19.10
2019-05-21T10:11:29.147Z,18.70
2019-05-21T10:12:29.123Z,17.90
2019-05-21T10:13:29.116Z,19.00
2019-05-21T10:14:29.096Z,18.80
2019-05-21T10:15:29.076Z,20.40
2019-05-21T10:16:29.057Z,20.10
2019-05-21T10:17:29.042Z,19.20
2019-05-21T10:18:29.035Z,19.70
2019-05-21T10:19:29.012Z,21.20
2019-05-21T10:20:29.020Z,21.00
2019-05-21T10:21:28.987Z,21.20
2019-05-21T10:22:28.970Z,20.20
2019-05-21T10:23:28.952Z,19.10
2019-05-21T10:24:28.935Z,20.30
2019-05-21T10:25:28.929Z,18.80
2019-05-21T10:26:28.909Z,18.50
2019-05-21T10:27:28.900Z,18.10
2019-05-21T10:28:28.874Z,18.40
2019-05-21T10:29:28.863Z,20.70
2019-05-21T10:30:28.842Z,26.20
2019-05-21T10:31:28.829Z,21.80
2019-05-21T10:32:28.814Z,22.30
2019-05-21T10:33:28.798Z,24.50
2019-05-21T10:34:28.788Z,22.50
2019-05-21T10:35:28.767Z,23.60
2019-05-21T10:36:28.827Z,20.50
2019-05-21T10:37:28.747Z,20.70
2019-05-21T10:38:28.723Z,20.70
2019-05-21T10:39:28.717Z,23.00
2019-05-21T10:40:28.692Z,23.90
2019-05-21T10:41:28.682Z,20.20
2019-05-21T10:42:28.675Z,20.50
2019-05-21T10:43:28.652Z,24.30
2019-05-21T10:44:28.630Z,21.70
2019-05-21T10:45:28.626Z,23.20
2019-05-21T10:46:28.601Z,21.20
2019-05-21T10:47:28.588Z,22.90
2019-05-21T10:48:28.583Z,21.70
2019-05-21T10:49:28.555Z,24.80
2019-05-21T10:50:28.550Z,21.80
2019-05-21T10:51:28.530Z,23.50
2019-05-21T10:52:28.512Z,23.30
2019-05-21T10:53:28.540Z,22.80
2019-05-21T10:54:28.552Z,21.50
2019-05-21T10:55:28.470Z,24.50
2019-05-21T10:56:28.458Z,22.70
2019-05-21T10:57:28.441Z,21.30
2019-05-21T10:58:28.423Z,22.80
2019-05-21T10:59:28.410Z,20.70
2019-05-21T11:00:28.399Z,20.80
2019-05-21T11:01:28.378Z,21.60
2019-05-21T11:02:28.362Z,20.10
2019-05-21T11:03:28.357Z,20.40
2019-05-21T11:04:28.331Z,20.80
2019-05-21T11:05:29.048Z,19.50
2019-05-21T11:06:28.301Z,22.30
2019-05-21T11:07:28.288Z,22.70
2019-05-21T11:08:28.280Z,20.50
2019-05-21T11:09:28.255Z,20.00
2019-05-21T11:10:28.239Z,19.80
2019-05-21T11:11:28.226Z,22.00
2019-05-21T11:12:28.211Z,20.40
2019-05-21T11:13:28.196Z,22.20
2019-05-21T11:14:28.200Z,21.30
2019-05-21T11:15:28.176Z,21.80
2019-05-21T11:16:28.164Z,21.90
2019-05-21T11:17:28.149Z,20.10
2019-05-21T11:18:28.124Z,20.00
2019-05-21T11:19:28.108Z,20.20
2019-05-21T11:20:28.097Z,19.60
2019-05-21T11:21:28.075Z,20.20
2019-05-21T11:22:28.063Z,18.70
2019-05-21T11:23:28.057Z,21.00
2019-05-21T11:24:28.033Z,19.60
2019-05-21T11:25:28.019Z,19.20
2019-05-21T11:26:28.015Z,20.10
2019-05-21T11:27:27.988Z,18.90
2019-05-21T11:28:27.972Z,18.50
2019-05-21T11:29:27.996Z,19.60
2019-05-21T11:30:27.962Z,18.00
2019-05-21T11:31:27.934Z,16.70
2019-05-21T11:32:27.914Z,17.30
2019-05-21T11:33:27.901Z,17.60
2019-05-21T11:34:27.886Z,18.00
2019-05-21T11:35:27.870Z,18.60
2019-05-21T11:36:27.864Z,17.40
2019-05-21T11:37:27.844Z,17.50
2019-05-21T11:38:39.382Z,18.50
2019-05-21T11:39:27.813Z,17.40
2019-05-21T11:40:27.801Z,18.20
2019-05-21T11:41:27.784Z,17.60
2019-05-21T11:42:27.770Z,18.30
2019-05-21T11:43:27.759Z,18.40
2019-05-21T11:44:27.741Z,21.90
2019-05-21T11:45:32.338Z,19.50
2019-05-21T11:46:27.712Z,19.00
2019-05-21T11:47:27.698Z,17.70
2019-05-21T11:48:27.686Z,18.50
2019-05-21T11:49:27.678Z,18.00
2019-05-21T11:50:27.658Z,17.20
2019-05-21T11:51:27.643Z,17.20
2019-05-21T11:52:27.629Z,17.00
2019-05-21T11:53:31.603Z,17.40
2019-05-21T11:54:27.600Z,16.20
2019-05-21T11:55:27.582Z,18.00
2019-05-21T11:56:27.568Z,17.20
2019-05-21T11:57:27.560Z,17.70
2019-05-21T11:58:27.537Z,16.70
2019-05-21T11:59:27.524Z,16.00
2019-05-21T12:00:27.509Z,17.00
2019-05-21T12:01:27.497Z,16.90
2019-05-21T12:02:27.481Z,15.70
2019-05-21T12:03:27.463Z,16.30
2019-05-21T12:04:27.461Z,16.40
2019-05-21T12:05:27.463Z,16.90
2019-05-21T12:06:27.426Z,18.80
2019-05-21T12:07:27.408Z,16.90
2019-05-21T12:08:27.401Z,17.30
2019-05-21T12:09:27.382Z,15.90
2019-05-21T12:10:27.373Z,15.90
2019-05-21T12:11:27.349Z,16.20
2019-05-21T12:12:27.342Z,16.00
2019-05-21T12:13:27.323Z,15.90
2019-05-21T12:14:27.325Z,15.70
2019-05-21T12:15:27.295Z,17.00
2019-05-21T12:16:27.281Z,16.60
2019-05-21T12:17:27.267Z,16.00
2019-05-21T12:18:27.258Z,16.80
2019-05-21T12:19:27.247Z,16.20
2019-05-21T12:20:36.697Z,17.80
2019-05-21T12:21:27.219Z,18.50
2019-05-21T12:22:27.203Z,16.80
2019-05-21T12:23:27.179Z,17.00
2019-05-21T12:24:27.675Z,16.30
2019-05-21T12:25:27.159Z,16.30
2019-05-21T12:26:27.141Z,16.30
2019-05-21T12:27:27.128Z,16.40
2019-05-21T12:28:27.113Z,16.10
2019-05-21T12:29:27.107Z,16.30
2019-05-21T12:30:27.086Z,16.00
2019-05-21T12:31:27.069Z,16.90
2019-05-21T12:32:27.056Z,16.70
2019-05-21T12:33:27.048Z,15.20
2019-05-21T12:34:27.035Z,15.80
2019-05-21T12:35:27.018Z,16.30
2019-05-21T12:36:27.012Z,18.80
2019-05-21T12:37:26.997Z,25.10
2019-05-21T12:38:26.973Z,22.50
2019-05-21T12:39:26.959Z,17.10
2019-05-21T12:40:26.948Z,20.20
2019-05-21T12:41:26.976Z,16.40
2019-05-21T12:42:26.916Z,16.90
2019-05-21T12:43:26.902Z,15.90
2019-05-21T12:44:26.886Z,16.20
2019-05-21T12:45:26.894Z,16.70
2019-05-21T12:46:26.857Z,16.00
2019-05-21T12:47:26.845Z,16.90
2019-05-21T12:48:26.828Z,16.40
2019-05-21T12:49:26.876Z,16.10
2019-05-21T12:50:26.813Z,16.30
2019-05-21T12:51:26.786Z,15.50
2019-05-21T12:52:26.772Z,16.10